NKS408 KDFW-KSFO
Flight info
| Callsign | NKS408 |
|---|---|
| Flight time | N/A |
| Altitude | 34000 |
| Route | HRPER3 HULZE DCT FTI/N0447F360 J58 RSK DCT HASSL Q130 ROCCY Q164 KATTS Q136 RUMPS DCT OAL DCT INYOE DYAMD5 |
| Aircraft | A310/H-SDFGHIM1RTUWXY/LB1 |
Departure
| Time | 2026-05-08 01:48 |
|---|---|
| Airport | Dallas Fort Worth International Airport (KDFW) |
Arrival
| Time | N/A |
|---|---|
| Airport | San Francisco International Airport (KSFO) |
| Time | Latitude | Longitude | Altitude | Speed | Heading |
|---|---|---|---|---|---|
| 2026-05-08 01:17 | 32.89339 | -97.03896 | 619 ft | 0 kts | 204° |
| 2026-05-08 01:35 | 32.89352 | -97.03889 | 619 ft | 2 kts | 205° |
| 2026-05-08 01:35 | 32.89365 | -97.03883 | 619 ft | 2 kts | 204° |
| 2026-05-08 01:35 | 32.89379 | -97.03875 | 619 ft | 2 kts | 204° |
| 2026-05-08 01:36 | 32.89387 | -97.03870 | 619 ft | 1 kts | 203° |
| 2026-05-08 01:36 | 32.89393 | -97.03870 | 619 ft | 1 kts | 141° |
| 2026-05-08 01:36 | 32.89397 | -97.03876 | 619 ft | 0 kts | 91° |
| 2026-05-08 01:36 | 32.89397 | -97.03883 | 619 ft | 0 kts | 91° |
| 2026-05-08 01:40 | 32.89395 | -97.03865 | 619 ft | 8 kts | 97° |
| 2026-05-08 01:40 | 32.89382 | -97.03759 | 619 ft | 14 kts | 96° |
| 2026-05-08 01:40 | 32.89378 | -97.03635 | 619 ft | 15 kts | 86° |
| 2026-05-08 01:40 | 32.89395 | -97.03508 | 619 ft | 15 kts | 86° |
| 2026-05-08 01:41 | 32.89394 | -97.03381 | 619 ft | 15 kts | 90° |
| 2026-05-08 01:41 | 32.89395 | -97.03252 | 619 ft | 15 kts | 90° |
| 2026-05-08 01:41 | 32.89437 | -97.03194 | 619 ft | 9 kts | 9° |
| 2026-05-08 01:41 | 32.89504 | -97.03193 | 619 ft | 10 kts | 0° |
| 2026-05-08 01:42 | 32.89601 | -97.03193 | 619 ft | 17 kts | 0° |
| 2026-05-08 01:42 | 32.89736 | -97.03193 | 619 ft | 20 kts | 360° |
| 2026-05-08 01:42 | 32.89875 | -97.03193 | 619 ft | 20 kts | 0° |
| 2026-05-08 01:42 | 32.90015 | -97.03192 | 619 ft | 20 kts | 0° |
| 2026-05-08 01:43 | 32.90157 | -97.03192 | 619 ft | 20 kts | 360° |
| 2026-05-08 01:43 | 32.90299 | -97.03191 | 619 ft | 20 kts | 0° |
| 2026-05-08 01:43 | 32.90443 | -97.03190 | 619 ft | 20 kts | 0° |
| 2026-05-08 01:43 | 32.90586 | -97.03188 | 619 ft | 20 kts | 0° |
| 2026-05-08 01:44 | 32.90733 | -97.03188 | 619 ft | 20 kts | 0° |
| 2026-05-08 01:44 | 32.90879 | -97.03187 | 619 ft | 21 kts | 0° |
| 2026-05-08 01:44 | 32.91025 | -97.03186 | 619 ft | 21 kts | 0° |
| 2026-05-08 01:44 | 32.91174 | -97.03187 | 619 ft | 21 kts | 360° |
| 2026-05-08 01:45 | 32.91280 | -97.03186 | 619 ft | 21 kts | 0° |
| 2026-05-08 01:45 | 32.91289 | -97.03186 | 619 ft | 21 kts | 0° |
| 2026-05-08 01:45 | 32.91325 | -97.03186 | 619 ft | 21 kts | 0° |
| 2026-05-08 01:45 | 32.91437 | -97.03186 | 619 ft | 13 kts | 360° |
| 2026-05-08 01:46 | 32.91479 | -97.03169 | 619 ft | 6 kts | 72° |
| 2026-05-08 01:46 | 32.91481 | -97.03118 | 619 ft | 0 kts | 91° |
| 2026-05-08 01:46 | 32.91481 | -97.03115 | 619 ft | 2 kts | 91° |
| 2026-05-08 01:47 | 32.91480 | -97.03047 | 619 ft | 13 kts | 91° |
| 2026-05-08 01:47 | 32.91422 | -97.02988 | 619 ft | 13 kts | 182° |
| 2026-05-08 01:47 | 32.91416 | -97.02989 | 619 ft | 0 kts | 182° |
| 2026-05-08 01:48 | 32.91222 | -97.02990 | 619 ft | 62 kts | 180° |
| 2026-05-08 01:48 | 32.90520 | -97.02994 | 619 ft | 138 kts | 180° |
| 2026-05-08 01:48 | 32.89334 | -97.02995 | 749 ft | 196 kts | 180° |
| 2026-05-08 01:48 | 32.87979 | -97.03047 | 1826 ft | 196 kts | 191° |
| 2026-05-08 01:49 | 32.86705 | -97.03461 | 2653 ft | 201 kts | 198° |
| 2026-05-08 01:49 | 32.85312 | -97.04031 | 3189 ft | 225 kts | 200° |
| 2026-05-08 01:49 | 32.83797 | -97.04734 | 3900 ft | 243 kts | 202° |
| 2026-05-08 01:49 | 32.82240 | -97.05524 | 4913 ft | 250 kts | 204° |
| 2026-05-08 01:50 | 32.80683 | -97.06361 | 5991 ft | 255 kts | 206° |
| 2026-05-08 01:50 | 32.79089 | -97.07276 | 7112 ft | 259 kts | 212° |
| 2026-05-08 01:50 | 32.77907 | -97.08804 | 8192 ft | 260 kts | 243° |
| 2026-05-08 01:50 | 32.77266 | -97.10809 | 9304 ft | 263 kts | 253° |
| 2026-05-08 01:51 | 32.76823 | -97.12901 | 10293 ft | 270 kts | 260° |
| 2026-05-08 01:51 | 32.76690 | -97.15209 | 11029 ft | 290 kts | 270° |
| 2026-05-08 01:51 | 32.76763 | -97.17677 | 11787 ft | 312 kts | 272° |
| 2026-05-08 01:51 | 32.76914 | -97.20319 | 12561 ft | 334 kts | 273° |
| 2026-05-08 01:52 | 32.77116 | -97.23118 | 13480 ft | 352 kts | 277° |
| 2026-05-08 01:52 | 32.77608 | -97.25993 | 14738 ft | 361 kts | 283° |
| 2026-05-08 01:52 | 32.78266 | -97.28849 | 16208 ft | 362 kts | 284° |
| 2026-05-08 01:52 | 32.78964 | -97.31689 | 17650 ft | 362 kts | 284° |
| 2026-05-08 01:53 | 32.79662 | -97.34519 | 18918 ft | 365 kts | 284° |
| 2026-05-08 01:53 | 32.80365 | -97.37399 | 20094 ft | 369 kts | 284° |
| 2026-05-08 01:53 | 32.81077 | -97.40341 | 21270 ft | 373 kts | 284° |
| 2026-05-08 01:53 | 32.81782 | -97.43268 | 22430 ft | 375 kts | 284° |
| 2026-05-08 01:54 | 32.82497 | -97.46240 | 23549 ft | 378 kts | 284° |
| 2026-05-08 01:54 | 32.83220 | -97.49253 | 24634 ft | 382 kts | 285° |
| 2026-05-08 01:54 | 32.83943 | -97.52266 | 25697 ft | 385 kts | 285° |
| 2026-05-08 01:54 | 32.84671 | -97.55302 | 26733 ft | 388 kts | 285° |
| 2026-05-08 01:55 | 32.85416 | -97.58415 | 27735 ft | 391 kts | 285° |
| 2026-05-08 01:55 | 32.86154 | -97.61501 | 28674 ft | 394 kts | 285° |
| 2026-05-08 01:55 | 32.86901 | -97.64628 | 29612 ft | 395 kts | 286° |
| 2026-05-08 01:55 | 32.87637 | -97.67721 | 30761 ft | 389 kts | 285° |
| 2026-05-08 01:56 | 32.88362 | -97.70776 | 31942 ft | 379 kts | 286° |
| 2026-05-08 01:56 | 32.89135 | -97.73756 | 32946 ft | 371 kts | 289° |
| 2026-05-08 01:56 | 32.90009 | -97.76613 | 33558 ft | 369 kts | 291° |
| 2026-05-08 01:56 | 32.90952 | -97.79491 | 33920 ft | 367 kts | 291° |
| 2026-05-08 01:57 | 32.91888 | -97.82305 | 34047 ft | 366 kts | 291° |
| 2026-05-08 01:57 | 32.92825 | -97.85132 | 34029 ft | 363 kts | 291° |
| 2026-05-08 01:57 | 32.94651 | -97.90684 | 34029 ft | 359 kts | 291° |
| 2026-05-08 01:58 | 32.96468 | -97.96230 | 34026 ft | 359 kts | 291° |
| 2026-05-08 01:58 | 32.98293 | -98.01813 | 34029 ft | 362 kts | 291° |
| 2026-05-08 01:59 | 33.00128 | -98.07433 | 34030 ft | 365 kts | 291° |
| 2026-05-08 01:59 | 33.01977 | -98.13110 | 34029 ft | 368 kts | 291° |
| 2026-05-08 02:00 | 33.03847 | -98.18861 | 34028 ft | 371 kts | 291° |
| 2026-05-08 02:00 | 33.05707 | -98.24608 | 34024 ft | 373 kts | 291° |
| 2026-05-08 02:01 | 33.07608 | -98.30479 | 34018 ft | 376 kts | 291° |
| 2026-05-08 02:01 | 33.09511 | -98.36326 | 34010 ft | 379 kts | 291° |
| 2026-05-08 02:02 | 33.11429 | -98.42226 | 34016 ft | 382 kts | 291° |
| 2026-05-08 02:02 | 33.13353 | -98.48157 | 34017 ft | 384 kts | 291° |
| 2026-05-08 02:03 | 33.15270 | -98.54079 | 34017 ft | 383 kts | 291° |
| 2026-05-08 02:03 | 33.17204 | -98.60062 | 34015 ft | 383 kts | 291° |
| 2026-05-08 02:04 | 33.19117 | -98.65992 | 34017 ft | 383 kts | 291° |
| 2026-05-08 02:04 | 33.20960 | -98.71735 | 34028 ft | 383 kts | 291° |
| 2026-05-08 02:05 | 33.22869 | -98.77680 | 34025 ft | 383 kts | 291° |
| 2026-05-08 02:05 | 33.24779 | -98.83633 | 34021 ft | 383 kts | 291° |
| 2026-05-08 02:06 | 33.26678 | -98.89567 | 34019 ft | 383 kts | 291° |
| 2026-05-08 02:06 | 33.28571 | -98.95491 | 34018 ft | 378 kts | 291° |
| 2026-05-08 02:07 | 33.30430 | -99.01321 | 34020 ft | 374 kts | 291° |
| 2026-05-08 02:07 | 33.32281 | -99.07136 | 34018 ft | 370 kts | 291° |
| 2026-05-08 02:08 | 33.34098 | -99.12852 | 34016 ft | 366 kts | 291° |
| 2026-05-08 02:08 | 33.35897 | -99.18525 | 34022 ft | 366 kts | 291° |
| 2026-05-08 02:09 | 33.37715 | -99.24268 | 34026 ft | 367 kts | 291° |
| 2026-05-08 02:09 | 33.39540 | -99.30044 | 34030 ft | 367 kts | 291° |
| 2026-05-08 02:10 | 33.41375 | -99.35864 | 34031 ft | 367 kts | 291° |
| 2026-05-08 02:10 | 33.43163 | -99.41544 | 34027 ft | 365 kts | 291° |
| 2026-05-08 02:11 | 33.44810 | -99.46785 | 34026 ft | 367 kts | 291° |